createdAt,value
2019-03-06T00:01:24.956Z,20.97
2019-03-06T00:04:13.750Z,23.23
2019-03-06T00:07:02.984Z,27.23
2019-03-06T00:09:53.212Z,39.43
2019-03-06T00:12:42.082Z,24.80
2019-03-06T00:15:31.361Z,17.87
2019-03-06T00:18:20.205Z,20.13
2019-03-06T00:21:09.487Z,16.83
2019-03-06T00:23:58.515Z,20.47
2019-03-06T00:26:47.729Z,14.03
2019-03-06T00:29:37.051Z,12.97
2019-03-06T00:32:26.395Z,10.40
2019-03-06T00:35:20.447Z,8.10
2019-03-06T00:38:09.574Z,6.97
2019-03-06T00:41:18.022Z,6.27
2019-03-06T00:44:07.268Z,6.20
2019-03-06T00:46:56.616Z,5.30
2019-03-06T00:49:45.762Z,5.87
2019-03-06T00:52:35.027Z,6.37
2019-03-06T00:55:24.266Z,6.60
2019-03-06T00:58:13.811Z,4.83
2019-03-06T01:01:02.767Z,6.47
2019-03-06T01:03:52.112Z,5.83
2019-03-06T01:06:41.305Z,9.07
2019-03-06T01:09:30.160Z,6.63
2019-03-06T01:12:19.451Z,9.13
2019-03-06T01:15:09.023Z,7.10
2019-03-06T01:17:58.205Z,7.23
2019-03-06T01:20:47.620Z,5.00
2019-03-06T01:23:36.647Z,6.83
2019-03-06T01:26:25.946Z,8.70
2019-03-06T01:29:15.243Z,5.70
2019-03-06T01:32:05.110Z,5.47
2019-03-06T01:35:19.410Z,4.97
2019-03-06T01:38:37.008Z,5.57
2019-03-06T01:42:03.913Z,5.60
2019-03-06T01:44:56.324Z,6.27
2019-03-06T01:47:45.311Z,5.80
2019-03-06T01:50:34.610Z,5.50
2019-03-06T01:53:27.110Z,5.70
2019-03-06T01:56:16.320Z,6.63
2019-03-06T01:59:05.883Z,7.17
2019-03-06T02:01:55.137Z,7.90
2019-03-06T02:04:44.532Z,9.07
2019-03-06T02:07:34.210Z,7.70
2019-03-06T02:10:23.313Z,8.43
2019-03-06T02:13:14.234Z,8.90
2019-03-06T02:16:03.895Z,9.23
2019-03-06T02:18:53.141Z,7.63
2019-03-06T02:21:42.774Z,9.47
2019-03-06T02:24:32.336Z,8.43
2019-03-06T02:27:21.603Z,6.90
2019-03-06T02:30:13.993Z,6.57
2019-03-06T02:33:03.089Z,6.47
2019-03-06T02:35:52.557Z,4.43
2019-03-06T02:38:41.623Z,6.87
2019-03-06T02:41:30.946Z,10.40
2019-03-06T02:44:20.135Z,10.40
2019-03-06T02:47:09.427Z,9.47
2019-03-06T02:49:58.926Z,13.07
2019-03-06T02:52:48.542Z,8.27
2019-03-06T02:55:37.786Z,8.47
2019-03-06T02:58:44.278Z,8.47
2019-03-06T03:01:47.799Z,8.30
2019-03-06T03:04:41.633Z,7.73
2019-03-06T03:07:30.853Z,7.50
2019-03-06T03:10:20.390Z,8.63
2019-03-06T03:13:09.193Z,7.80
2019-03-06T03:15:58.530Z,7.67
2019-03-06T03:18:47.683Z,8.57
2019-03-06T03:21:36.988Z,10.50
2019-03-06T03:24:26.250Z,9.57
2019-03-06T03:27:15.336Z,9.23
2019-03-06T03:30:05.689Z,10.57
2019-03-06T03:32:55.538Z,7.30
2019-03-06T03:35:45.213Z,7.23
2019-03-06T03:38:34.684Z,12.17
2019-03-06T03:41:23.390Z,11.93
2019-03-06T03:44:12.656Z,8.43
2019-03-06T03:47:01.937Z,6.77
2019-03-06T03:49:51.301Z,6.80
2019-03-06T03:52:40.686Z,7.90
2019-03-06T03:55:33.113Z,8.40
2019-03-06T03:58:22.175Z,9.20
2019-03-06T04:01:11.643Z,14.00
2019-03-06T04:04:00.679Z,14.73
2019-03-06T04:06:50.017Z,11.83
2019-03-06T04:09:39.341Z,35.17
2019-03-06T04:12:28.642Z,70.73
2019-03-06T04:15:18.868Z,12.80
2019-03-06T04:18:08.424Z,10.73
2019-03-06T04:20:57.981Z,11.60
2019-03-06T04:23:47.263Z,10.27
2019-03-06T04:26:36.563Z,43.07
2019-03-06T04:29:25.646Z,50.37
2019-03-06T04:32:14.192Z,36.63
2019-03-06T04:35:03.454Z,31.43
2019-03-06T04:37:52.743Z,28.30
2019-03-06T04:40:41.883Z,22.13
2019-03-06T04:43:31.105Z,29.67
2019-03-06T04:46:20.769Z,25.90
2019-03-06T04:49:09.831Z,26.83
2019-03-06T04:51:59.417Z,52.00
2019-03-06T04:54:48.637Z,56.53
2019-03-06T04:57:38.080Z,41.47
2019-03-06T05:00:27.614Z,39.30
2019-03-06T05:03:16.786Z,22.93
2019-03-06T05:06:06.489Z,21.43
2019-03-06T05:08:55.844Z,18.03
2019-03-06T05:11:45.363Z,17.23
2019-03-06T05:14:35.025Z,42.77
2019-03-06T05:17:52.642Z,32.70
2019-03-06T05:20:41.927Z,25.47
2019-03-06T05:23:31.181Z,22.03
2019-03-06T05:26:20.483Z,12.87
2019-03-06T05:29:09.760Z,10.03
2019-03-06T05:32:45.460Z,21.90
2019-03-06T05:36:24.139Z,38.33
2019-03-06T05:39:13.337Z,30.50
2019-03-06T05:42:03.573Z,21.67
2019-03-06T05:44:53.370Z,23.37
2019-03-06T05:47:42.698Z,24.77
2019-03-06T05:50:38.699Z,34.20
2019-03-06T05:53:30.283Z,59.27
2019-03-06T05:56:25.717Z,72.20
2019-03-06T05:59:15.359Z,45.13
2019-03-06T06:02:04.245Z,53.87
2019-03-06T06:04:53.325Z,45.67
2019-03-06T06:07:43.096Z,31.77
2019-03-06T06:10:32.375Z,20.93
2019-03-06T06:13:21.958Z,9.97
2019-03-06T06:16:10.616Z,7.70
2019-03-06T06:18:59.125Z,11.13
2019-03-06T06:22:16.466Z,11.87
2019-03-06T06:25:05.636Z,10.60
2019-03-06T06:27:55.247Z,15.80
2019-03-06T06:30:44.306Z,16.30
2019-03-06T06:33:33.759Z,8.70
2019-03-06T06:36:23.365Z,20.83
2019-03-06T06:39:12.935Z,16.53
2019-03-06T06:42:01.741Z,15.50
2019-03-06T06:44:51.094Z,18.70
2019-03-06T06:48:15.101Z,20.33
2019-03-06T06:51:46.533Z,10.40
2019-03-06T06:55:12.936Z,16.10
2019-03-06T06:58:33.217Z,11.33
2019-03-06T07:01:52.929Z,9.83
2019-03-06T07:05:33.110Z,18.80
2019-03-06T07:08:40.556Z,10.27
2019-03-06T07:11:50.660Z,8.43
2019-03-06T07:14:59.176Z,6.87
2019-03-06T07:17:57.304Z,6.03
2019-03-06T07:21:20.739Z,8.13
2019-03-06T07:24:24.945Z,4.73
2019-03-06T07:27:39.097Z,4.87
2019-03-06T07:30:37.310Z,8.37
2019-03-06T07:33:57.810Z,6.47
2019-03-06T07:36:55.531Z,22.13
2019-03-06T07:39:54.923Z,9.57
2019-03-06T07:43:01.945Z,4.20
2019-03-06T07:46:12.799Z,3.90
2019-03-06T07:49:44.761Z,4.27
2019-03-06T07:52:44.922Z,4.00
2019-03-06T07:55:50.678Z,3.13
2019-03-06T07:58:54.198Z,5.07
2019-03-06T08:02:04.558Z,4.60
2019-03-06T08:04:54.544Z,17.47
2019-03-06T08:07:44.140Z,9.27
2019-03-06T08:10:36.332Z,5.60
2019-03-06T08:13:50.293Z,4.23
2019-03-06T08:16:48.059Z,3.83
2019-03-06T08:20:02.572Z,2.90
2019-03-06T08:23:17.500Z,3.67
2019-03-06T08:26:06.959Z,5.33
2019-03-06T08:28:56.341Z,6.43
2019-03-06T08:31:54.610Z,8.90
2019-03-06T08:34:43.915Z,6.90
2019-03-06T08:37:33.633Z,24.27
2019-03-06T08:40:23.270Z,22.30
2019-03-06T08:43:12.535Z,32.13
2019-03-06T08:46:23.564Z,8.70
2019-03-06T08:49:31.587Z,6.20
2019-03-06T08:52:42.610Z,5.00
2019-03-06T08:55:54.128Z,4.50
2019-03-06T08:59:18.737Z,4.87
2019-03-06T09:02:33.464Z,6.17
2019-03-06T09:05:39.378Z,4.30
2019-03-06T09:09:02.094Z,8.30
2019-03-06T09:12:13.104Z,5.53
2019-03-06T09:15:35.579Z,4.07
2019-03-06T09:18:42.369Z,7.00
2019-03-06T09:21:49.067Z,8.97
2019-03-06T09:24:56.271Z,13.30
2019-03-06T09:28:10.630Z,5.03
2019-03-06T09:31:14.627Z,21.73
2019-03-06T09:34:22.651Z,5.77
2019-03-06T09:37:29.952Z,8.80
2019-03-06T09:40:53.756Z,4.57
2019-03-06T09:44:00.516Z,5.63
2019-03-06T09:46:59.091Z,4.60
2019-03-06T09:50:16.807Z,4.07
2019-03-06T09:53:31.540Z,5.87
2019-03-06T09:56:40.403Z,8.77
2019-03-06T09:59:34.812Z,4.43
2019-03-06T10:02:52.020Z,3.90
2019-03-06T10:06:05.951Z,4.17
2019-03-06T10:09:14.071Z,5.17
2019-03-06T10:12:28.147Z,7.63
2019-03-06T10:15:25.418Z,6.07
2019-03-06T10:18:36.614Z,4.53
2019-03-06T10:21:25.846Z,6.77
2019-03-06T10:24:15.933Z,3.67
2019-03-06T10:27:05.515Z,3.60
2019-03-06T10:29:55.012Z,6.30
2019-03-06T10:32:44.635Z,3.80
2019-03-06T10:35:34.235Z,3.80
2019-03-06T10:38:24.257Z,4.13
2019-03-06T10:41:13.546Z,3.53
2019-03-06T10:44:02.803Z,4.37
2019-03-06T10:46:52.073Z,3.90
2019-03-06T10:49:41.449Z,4.33
2019-03-06T10:52:30.276Z,5.50
2019-03-06T10:55:19.569Z,6.30
2019-03-06T10:58:08.852Z,7.23
2019-03-06T11:00:58.337Z,5.17
2019-03-06T11:04:12.551Z,3.00
2019-03-06T11:07:01.706Z,4.03
2019-03-06T11:09:50.977Z,4.73
2019-03-06T11:12:40.257Z,4.37
2019-03-06T11:15:29.600Z,4.70
2019-03-06T11:18:18.628Z,8.57
2019-03-06T11:21:08.552Z,4.43
2019-03-06T11:23:58.122Z,16.40
2019-03-06T11:26:48.240Z,8.00
2019-03-06T11:29:37.676Z,15.20
2019-03-06T11:32:27.067Z,15.13
2019-03-06T11:35:18.119Z,25.33
2019-03-06T11:38:07.963Z,8.87
2019-03-06T11:40:57.459Z,9.00
2019-03-06T11:43:46.924Z,12.67
2019-03-06T11:46:35.874Z,6.67
2019-03-06T11:49:25.200Z,30.83
2019-03-06T11:52:15.191Z,22.73
2019-03-06T11:55:07.541Z,7.03
2019-03-06T11:57:57.647Z,4.80
2019-03-06T12:00:47.303Z,6.07
2019-03-06T12:03:38.110Z,8.80
2019-03-06T12:06:27.314Z,4.47
2019-03-06T12:09:35.785Z,5.60
2019-03-06T12:12:25.030Z,5.70
2019-03-06T12:15:15.935Z,5.43
2019-03-06T12:18:05.214Z,6.50
2019-03-06T12:20:55.301Z,7.17
2019-03-06T12:23:44.253Z,5.23
2019-03-06T12:26:33.798Z,5.03
2019-03-06T12:29:24.389Z,4.13
2019-03-06T12:32:13.105Z,6.07
2019-03-06T12:35:05.207Z,4.10
2019-03-06T12:37:54.685Z,8.07
2019-03-06T12:40:44.031Z,6.93
2019-03-06T12:43:33.847Z,5.83
2019-03-06T12:46:26.733Z,5.27
2019-03-06T12:49:17.831Z,3.70
2019-03-06T12:52:07.209Z,13.23
2019-03-06T12:54:56.495Z,10.57
2019-03-06T12:57:46.055Z,16.30
2019-03-06T13:00:21.556Z,16.20
2019-03-06T13:02:52.707Z,12.50
2019-03-06T13:05:26.384Z,6.80
2019-03-06T13:07:57.339Z,5.13
2019-03-06T13:10:28.189Z,5.70
2019-03-06T13:12:59.172Z,4.00
2019-03-06T13:15:30.058Z,2.67
2019-03-06T13:18:01.006Z,4.30
2019-03-06T13:20:31.876Z,3.90
2019-03-06T13:23:04.079Z,4.73
2019-03-06T13:25:35.048Z,5.00
2019-03-06T13:28:06.001Z,6.87
2019-03-06T13:30:38.164Z,10.97
2019-03-06T13:33:30.696Z,9.57
2019-03-06T13:36:01.664Z,6.93
2019-03-06T13:38:32.650Z,4.50
2019-03-06T13:41:03.516Z,4.20
2019-03-06T13:43:34.465Z,10.90
2019-03-06T13:46:05.413Z,4.70
2019-03-06T13:48:36.268Z,7.13
2019-03-06T13:51:07.933Z,7.23
2019-03-06T13:53:38.785Z,2.97
2019-03-06T13:56:10.244Z,2.97
2019-03-06T13:58:41.189Z,4.77
2019-03-06T14:01:12.499Z,3.97
2019-03-06T14:03:43.723Z,3.13
2019-03-06T14:06:14.714Z,3.20
2019-03-06T14:09:05.677Z,3.33
2019-03-06T14:11:36.567Z,6.20
2019-03-06T14:14:07.434Z,7.30
2019-03-06T14:16:38.349Z,7.73
2019-03-06T14:19:09.319Z,4.80
2019-03-06T14:21:40.186Z,43.33
2019-03-06T14:24:11.061Z,166.37
2019-03-06T14:26:57.820Z,27.70
2019-03-06T14:29:28.678Z,46.17
2019-03-06T14:32:00.830Z,54.67
2019-03-06T14:34:32.077Z,30.83
2019-03-06T14:37:03.057Z,12.23
2019-03-06T14:39:33.914Z,28.90
2019-03-06T14:42:05.187Z,35.30
2019-03-06T14:44:36.053Z,11.40
2019-03-06T14:47:07.209Z,19.67
2019-03-06T14:49:38.356Z,30.40
2019-03-06T14:52:09.237Z,37.73
2019-03-06T14:54:40.115Z,22.03
2019-03-06T14:57:11.319Z,19.80
2019-03-06T14:59:44.045Z,19.87
2019-03-06T15:02:15.533Z,15.80
2019-03-06T15:04:46.404Z,12.97
2019-03-06T15:07:17.280Z,13.07
2019-03-06T15:09:48.242Z,11.23
2019-03-06T15:12:19.102Z,8.83
2019-03-06T15:14:50.146Z,11.40
2019-03-06T15:17:21.108Z,9.67
2019-03-06T15:19:51.979Z,13.87
2019-03-06T15:22:22.872Z,14.17
2019-03-06T15:24:54.042Z,15.97
2019-03-06T15:27:25.084Z,19.40
2019-03-06T15:29:55.943Z,19.93
2019-03-06T15:32:28.108Z,18.20
2019-03-06T15:34:59.095Z,20.57
2019-03-06T15:37:29.956Z,23.40
2019-03-06T15:40:01.088Z,29.97
2019-03-06T15:42:32.019Z,29.20
2019-03-06T15:45:02.883Z,29.17
2019-03-06T15:47:34.057Z,48.27
2019-03-06T15:50:05.583Z,41.40
2019-03-06T15:52:36.474Z,22.20
2019-03-06T15:55:08.431Z,25.83
2019-03-06T15:57:40.711Z,31.73
2019-03-06T16:00:28.575Z,26.93
2019-03-06T16:02:59.857Z,25.30
2019-03-06T16:05:31.120Z,25.17
2019-03-06T16:08:02.529Z,25.73
2019-03-06T16:10:35.204Z,29.73
2019-03-06T16:13:07.346Z,55.30
2019-03-06T16:15:38.773Z,75.63
2019-03-06T16:18:10.274Z,84.17
2019-03-06T16:20:42.514Z,79.63
2019-03-06T16:23:15.343Z,81.97
2019-03-06T16:25:49.050Z,92.77
2019-03-06T16:28:19.926Z,77.13
2019-03-06T16:30:51.172Z,76.80
2019-03-06T16:33:22.150Z,78.30
2019-03-06T16:35:53.056Z,91.50
2019-03-06T16:38:23.959Z,107.03
2019-03-06T16:40:54.823Z,54.73
2019-03-06T16:43:25.858Z,58.17
2019-03-06T16:45:56.832Z,106.83
2019-03-06T16:48:27.781Z,36.80
2019-03-06T16:50:59.110Z,120.57
2019-03-06T16:53:30.076Z,68.13
2019-03-06T16:56:00.991Z,86.83
2019-03-06T16:58:32.054Z,134.43
2019-03-06T17:01:03.004Z,95.10
2019-03-06T17:03:34.070Z,116.00
2019-03-06T17:06:05.369Z,92.67
2019-03-06T17:08:36.353Z,94.77
2019-03-06T17:11:08.068Z,102.13
2019-03-06T17:13:39.032Z,136.70
2019-03-06T17:16:10.008Z,115.97
2019-03-06T17:18:42.640Z,110.50
2019-03-06T17:21:13.509Z,97.57
2019-03-06T17:23:44.450Z,125.93
2019-03-06T17:26:16.091Z,89.43
2019-03-06T17:28:46.970Z,98.37
2019-03-06T17:31:17.879Z,77.87
2019-03-06T17:33:49.745Z,89.37
2019-03-06T17:36:20.611Z,82.93
2019-03-06T17:38:51.797Z,77.87
2019-03-06T17:41:22.861Z,120.27
2019-03-06T17:43:53.729Z,117.07
2019-03-06T17:46:24.703Z,97.20
2019-03-06T17:48:55.658Z,100.83
2019-03-06T17:51:27.473Z,119.40
2019-03-06T17:53:58.344Z,75.67
2019-03-06T17:56:29.305Z,76.63
2019-03-06T17:59:00.174Z,114.27
2019-03-06T18:01:31.149Z,164.60
2019-03-06T18:04:17.381Z,50.20
2019-03-06T18:06:48.462Z,56.97
2019-03-06T18:09:19.521Z,54.73
2019-03-06T18:11:50.728Z,53.40
2019-03-06T18:14:22.102Z,51.57
2019-03-06T18:16:53.104Z,48.17
2019-03-06T18:19:24.149Z,59.00
2019-03-06T18:21:55.247Z,71.23
2019-03-06T18:24:26.433Z,81.40
2019-03-06T18:26:57.884Z,77.53
2019-03-06T18:29:28.757Z,84.70
2019-03-06T18:32:00.280Z,85.77
2019-03-06T18:34:31.564Z,57.33
2019-03-06T18:37:02.574Z,62.63
2019-03-06T18:39:33.479Z,66.70
2019-03-06T18:42:04.602Z,54.90
2019-03-06T18:44:35.764Z,59.87
2019-03-06T18:47:06.838Z,58.30
2019-03-06T18:49:37.794Z,53.97
2019-03-06T18:52:08.886Z,79.00
2019-03-06T18:54:39.800Z,70.17
2019-03-06T18:57:10.666Z,41.87
2019-03-06T18:59:41.549Z,44.07
2019-03-06T19:02:12.507Z,32.07
2019-03-06T19:04:43.403Z,41.70
2019-03-06T19:07:14.436Z,44.20
2019-03-06T19:09:45.779Z,42.83
2019-03-06T19:12:18.270Z,36.90
2019-03-06T19:14:50.090Z,39.00
2019-03-06T19:17:21.395Z,27.50
2019-03-06T19:19:52.401Z,25.17
2019-03-06T19:22:23.499Z,47.50
2019-03-06T19:24:54.497Z,34.97
2019-03-06T19:27:25.369Z,30.00
2019-03-06T19:29:56.269Z,41.03
2019-03-06T19:32:27.824Z,50.47
2019-03-06T19:35:00.773Z,39.43
2019-03-06T19:37:31.652Z,35.67
2019-03-06T19:40:04.160Z,38.10
2019-03-06T19:42:35.161Z,45.57
2019-03-06T19:45:07.147Z,54.63
2019-03-06T19:47:38.282Z,43.40
2019-03-06T19:50:11.988Z,40.70
2019-03-06T19:52:43.069Z,56.03
2019-03-06T19:55:15.961Z,84.27
2019-03-06T19:57:54.908Z,70.33
2019-03-06T20:00:26.657Z,48.13
2019-03-06T20:02:58.478Z,70.07
2019-03-06T20:05:35.819Z,53.93
2019-03-06T20:08:09.866Z,50.23
2019-03-06T20:10:41.545Z,41.70
2019-03-06T20:13:12.692Z,40.27
2019-03-06T20:15:44.665Z,38.77
2019-03-06T20:18:15.637Z,40.73
2019-03-06T20:20:46.820Z,41.73
2019-03-06T20:23:17.823Z,42.47
2019-03-06T20:25:49.077Z,39.73
2019-03-06T20:28:19.993Z,53.20
2019-03-06T20:30:50.865Z,43.70
2019-03-06T20:33:22.189Z,44.00
2019-03-06T20:35:54.229Z,45.73
2019-03-06T20:38:25.103Z,66.43
2019-03-06T20:40:55.951Z,39.77
2019-03-06T20:43:27.026Z,28.67
2019-03-06T20:45:57.886Z,30.47
2019-03-06T20:48:28.883Z,26.53
2019-03-06T20:50:59.883Z,26.60
2019-03-06T20:53:30.746Z,26.40
2019-03-06T20:56:01.613Z,25.03
2019-03-06T20:58:32.659Z,24.17
2019-03-06T21:01:22.282Z,30.20
2019-03-06T21:04:11.537Z,32.03
2019-03-06T21:07:01.337Z,30.83
2019-03-06T21:09:51.117Z,21.77
2019-03-06T21:12:40.674Z,37.23
2019-03-06T21:15:30.098Z,68.57
2019-03-06T21:18:19.399Z,50.10
2019-03-06T21:21:08.813Z,196.93
2019-03-06T21:23:58.057Z,153.27
2019-03-06T21:26:47.538Z,141.23
2019-03-06T21:29:36.845Z,100.13
2019-03-06T21:32:25.658Z,64.17
2019-03-06T21:35:15.043Z,73.43
2019-03-06T21:38:04.389Z,80.60
2019-03-06T21:40:54.130Z,91.33
2019-03-06T21:43:43.794Z,90.50
2019-03-06T21:46:32.850Z,61.10
2019-03-06T21:49:22.102Z,61.07
2019-03-06T21:52:11.261Z,57.43
2019-03-06T21:55:00.582Z,116.13
2019-03-06T21:57:50.096Z,68.53
2019-03-06T22:00:39.661Z,36.33
2019-03-06T22:03:28.513Z,64.97
2019-03-06T22:06:17.932Z,62.33
2019-03-06T22:09:13.648Z,110.90
2019-03-06T22:12:05.609Z,70.90
2019-03-06T22:14:54.431Z,59.93
2019-03-06T22:17:44.111Z,47.97
2019-03-06T22:20:33.269Z,53.27
2019-03-06T22:23:22.991Z,45.90
2019-03-06T22:26:12.284Z,48.30
2019-03-06T22:29:02.266Z,29.80
2019-03-06T22:31:51.641Z,41.43
2019-03-06T22:34:41.251Z,20.10
2019-03-06T22:37:31.520Z,17.17
2019-03-06T22:40:20.491Z,59.70
2019-03-06T22:43:09.778Z,37.13
2019-03-06T22:45:59.046Z,35.00
2019-03-06T22:48:48.544Z,21.77
2019-03-06T22:51:37.419Z,21.60
2019-03-06T22:54:26.699Z,23.77
2019-03-06T22:57:15.960Z,46.67
2019-03-06T23:00:11.370Z,42.90
2019-03-06T23:03:00.858Z,99.43
2019-03-06T23:05:50.388Z,73.90
2019-03-06T23:08:39.579Z,68.17
2019-03-06T23:11:28.516Z,44.40
2019-03-06T23:14:18.128Z,23.50
2019-03-06T23:17:10.336Z,24.33
2019-03-06T23:19:59.392Z,48.90
2019-03-06T23:22:48.900Z,37.13
2019-03-06T23:25:38.334Z,35.13
2019-03-06T23:28:27.215Z,32.00
2019-03-06T23:31:16.885Z,24.00
2019-03-06T23:34:06.268Z,20.43
2019-03-06T23:36:55.568Z,22.53
2019-03-06T23:39:46.364Z,21.30
2019-03-06T23:42:35.970Z,21.63
2019-03-06T23:45:24.989Z,24.90
2019-03-06T23:48:14.575Z,25.50
2019-03-06T23:51:09.331Z,33.77
2019-03-06T23:53:58.133Z,30.53
2019-03-06T23:56:47.430Z,29.40
2019-03-06T23:59:36.913Z,24.37
